Time;durP1;ratioP1;P1;durP2;ratioP2;P2;SDS_P1;SDS_P2;PMS_P1;PMS_P2;Temp;Humidity;BMP_temperature;BMP_pressure;BME280_temperature;BME280_humidity;BME280_pressure;Samples;Min_cycle;Max_cycle;Signal;HPM_P1;HPM_P2
2023/06/02 00:02:05;;;;;;;14.68;4.40;;;12.60;99.90;;;;;;5029548;28;20232;-85
2023/06/02 00:04:32;;;;;;;8.70;3.08;;;12.60;99.90;;;;;;5037815;28;20193;-84
2023/06/02 00:07:03;;;;;;;9.88;3.30;;;12.60;99.90;;;;;;5036407;28;20228;-84
2023/06/02 00:09:30;;;;;;;15.55;4.10;;;12.80;99.90;;;;;;5027864;28;20235;-84
2023/06/02 00:11:57;;;;;;;11.55;3.90;;;12.60;99.90;;;;;;5028469;28;20231;-85
2023/06/02 00:14:25;;;;;;;17.85;4.68;;;12.60;99.90;;;;;;5028397;28;20218;-84
2023/06/02 00:16:55;;;;;;;10.60;4.43;;;12.60;99.90;;;;;;5032746;28;20240;-85
2023/06/02 00:19:23;;;;;;;14.02;4.03;;;12.60;99.90;;;;;;5025591;28;20193;-85
2023/06/02 00:21:51;;;;;;;14.52;4.75;;;12.60;99.90;;;;;;5035656;28;20220;-85
2023/06/02 00:24:19;;;;;;;15.60;4.18;;;12.60;99.90;;;;;;5036893;28;20196;-85
2023/06/02 00:26:46;;;;;;;9.75;4.05;;;12.60;99.90;;;;;;5037165;28;20212;-85
2023/06/02 00:29:13;;;;;;;22.48;4.60;;;12.60;99.90;;;;;;5037375;28;20187;-85
2023/06/02 00:31:43;;;;;;;11.73;4.75;;;12.60;99.90;;;;;;5026303;28;20208;-84
2023/06/02 00:34:10;;;;;;;13.60;4.35;;;12.50;99.90;;;;;;5037930;28;20189;-85
2023/06/02 00:36:39;;;;;;;12.48;4.53;;;12.50;99.90;;;;;;5038248;28;20236;-86
2023/06/02 00:39:06;;;;;;;13.10;3.80;;;12.50;99.90;;;;;;5036756;28;20190;-85
2023/06/02 00:41:33;;;;;;;11.15;3.75;;;12.50;99.90;;;;;;5037901;28;20219;-86
2023/06/02 00:44:00;;;;;;;13.85;3.90;;;12.50;99.90;;;;;;5037941;28;20199;-85
2023/06/02 00:46:27;;;;;;;18.35;5.45;;;12.50;99.90;;;;;;5037955;28;20222;-84
2023/06/02 00:48:56;;;;;;;7.25;4.20;;;12.50;99.90;;;;;;5029699;28;20202;-85
2023/06/02 00:51:24;;;;;;;13.10;3.80;;;12.50;99.90;;;;;;5025831;28;20214;-85
2023/06/02 00:53:51;;;;;;;15.60;5.03;;;12.50;99.90;;;;;;5037872;28;20225;-85
2023/06/02 00:56:22;;;;;;;14.77;4.65;;;12.50;99.90;;;;;;5025520;28;20300;-85
2023/06/02 00:58:50;;;;;;;14.75;5.50;;;12.40;99.90;;;;;;5037665;28;20251;-84
2023/06/02 01:01:18;;;;;;;12.48;4.78;;;12.40;99.90;;;;;;5037682;28;20279;-85
2023/06/02 01:03:51;;;;;;;18.50;5.63;;;12.40;99.90;;;;;;5026691;28;20191;-84
2023/06/02 01:06:34;;;;;;;14.55;4.95;;;12.50;99.90;;;;;;5038016;28;20199;-85
2023/06/02 01:09:03;;;;;;;21.08;4.45;;;12.30;99.90;;;;;;5021659;28;20211;-84
2023/06/02 01:11:31;;;;;;;12.48;4.20;;;12.40;99.90;;;;;;5037643;28;20212;-85
2023/06/02 01:13:58;;;;;;;15.77;4.32;;;12.50;99.90;;;;;;5037251;28;20219;-84
2023/06/02 01:16:26;;;;;;;14.32;4.43;;;12.40;99.90;;;;;;5037428;28;20208;-85
2023/06/02 01:18:54;;;;;;;14.77;5.97;;;12.40;99.90;;;;;;5038196;28;20189;-84
2023/06/02 01:21:28;;;;;;;13.00;5.55;;;12.40;99.90;;;;;;5037147;28;20238;-85
2023/06/02 01:23:59;;;;;;;11.25;4.63;;;12.40;99.90;;;;;;5033130;28;20185;-85
2023/06/02 01:26:28;;;;;;;12.15;6.30;;;12.40;99.90;;;;;;5040122;28;20247;-84
2023/06/02 01:28:55;;;;;;;16.88;5.70;;;12.40;99.90;;;;;;5040851;28;20215;-85
2023/06/02 01:31:26;;;;;;;21.38;6.80;;;12.40;99.90;;;;;;5034479;28;20208;-85
2023/06/02 01:34:00;;;;;;;19.75;5.20;;;12.40;99.90;;;;;;5038594;28;20184;-84
2023/06/02 01:36:29;;;;;;;17.85;5.85;;;12.30;99.90;;;;;;5033282;28;20220;-84
2023/06/02 01:38:59;;;;;;;17.35;4.93;;;12.30;99.90;;;;;;5039087;28;20260;-84
2023/06/02 01:41:28;;;;;;;14.48;4.65;;;12.40;99.90;;;;;;5037603;28;20242;-84
2023/06/02 01:43:56;;;;;;;16.45;4.90;;;12.30;99.90;;;;;;5027026;28;20239;-84
2023/06/02 01:46:25;;;;;;;21.20;5.90;;;12.30;99.90;;;;;;5037570;28;20211;-84
2023/06/02 01:48:53;;;;;;;18.25;5.80;;;12.30;99.90;;;;;;5028876;28;20218;-83
2023/06/02 01:51:21;;;;;;;17.33;4.78;;;12.40;99.90;;;;;;5022652;28;20201;-83
2023/06/02 01:53:48;;;;;;;14.02;4.82;;;12.30;99.90;;;;;;5027675;28;20199;-83
2023/06/02 01:56:16;;;;;;;14.52;4.20;;;12.30;99.90;;;;;;5032810;28;20201;-85
2023/06/02 01:58:43;;;;;;;16.55;5.30;;;12.30;99.90;;;;;;5033290;28;20275;-84
2023/06/02 02:01:10;;;;;;;22.88;5.75;;;12.30;99.90;;;;;;5027778;28;20228;-85
2023/06/02 02:03:38;;;;;;;14.70;6.18;;;12.30;99.90;;;;;;5034720;28;20676;-84
2023/06/02 02:06:05;;;;;;;20.10;5.55;;;12.40;99.90;;;;;;5028506;28;20207;-84
2023/06/02 02:08:32;;;;;;;19.60;4.70;;;12.30;99.90;;;;;;5019766;28;20232;-83
2023/06/02 02:10:59;;;;;;;17.52;5.43;;;12.30;99.90;;;;;;5029528;28;20226;-83
2023/06/02 02:13:28;;;;;;;12.27;5.20;;;12.30;99.90;;;;;;5022858;28;20239;-84
2023/06/02 02:15:55;;;;;;;18.70;5.22;;;12.30;99.90;;;;;;5023910;28;20216;-85
2023/06/02 02:18:24;;;;;;;9.27;3.67;;;12.20;99.90;;;;;;5025036;28;20203;-84
2023/06/02 02:20:51;;;;;;;17.42;5.68;;;12.20;99.90;;;;;;5018794;28;20231;-85
2023/06/02 02:23:18;;;;;;;22.75;4.88;;;12.30;99.90;;;;;;5025163;28;20196;-83
2023/06/02 02:25:45;;;;;;;18.95;4.90;;;12.40;99.90;;;;;;5034305;28;20210;-84
2023/06/02 02:28:12;;;;;;;15.45;4.70;;;12.30;99.90;;;;;;5036280;28;20229;-84
2023/06/02 02:30:40;;;;;;;13.45;6.20;;;12.30;99.90;;;;;;5036228;28;20219;-85
2023/06/02 02:33:08;;;;;;;12.10;5.65;;;12.40;99.90;;;;;;5034841;28;20227;-84
2023/06/02 02:35:35;;;;;;;12.95;5.88;;;12.30;99.90;;;;;;5037374;28;20218;-83
2023/06/02 02:38:01;;;;;;;11.85;4.78;;;12.40;99.90;;;;;;5037545;28;20192;-84
2023/06/02 02:40:29;;;;;;;15.73;5.55;;;12.30;99.90;;;;;;5023835;28;20221;-84
2023/06/02 02:42:56;;;;;;;18.20;5.78;;;12.30;99.90;;;;;;5034749;28;20223;-85
2023/06/02 02:45:23;;;;;;;15.07;5.82;;;12.30;99.90;;;;;;5027220;28;20201;-84
2023/06/02 02:47:52;;;;;;;19.33;7.05;;;12.20;99.90;;;;;;5036324;28;20230;-84
2023/06/02 02:50:19;;;;;;;12.45;5.90;;;12.20;99.90;;;;;;5035407;28;20224;-85
2023/06/02 03:03:17;;;;;;;19.85;6.70;;;12.30;99.90;;;;;;5957237;23;20222;-83
2023/06/02 03:05:47;;;;;;;23.10;5.60;;;12.20;99.90;;;;;;5052230;28;20213;-82
2023/06/02 03:08:15;;;;;;;14.23;5.47;;;12.20;99.90;;;;;;5059394;28;20242;-84
2023/06/02 03:10:42;;;;;;;15.18;5.22;;;12.20;99.90;;;;;;5048455;28;20231;-84
2023/06/02 03:13:09;;;;;;;23.33;6.60;;;12.20;99.90;;;;;;5040113;28;20219;-85
2023/06/02 03:15:36;;;;;;;17.45;5.82;;;12.20;99.90;;;;;;5052683;28;20191;-83
2023/06/02 03:18:04;;;;;;;15.00;4.80;;;12.20;99.90;;;;;;5072341;28;20198;-84
2023/06/02 03:20:33;;;;;;;21.50;5.90;;;12.20;99.90;;;;;;5059287;28;20223;-84
2023/06/02 03:22:59;;;;;;;21.52;7.25;;;12.30;99.90;;;;;;5048685;28;20280;-84
2023/06/02 03:25:26;;;;;;;16.33;6.90;;;12.30;99.90;;;;;;5054115;28;20211;-84
2023/06/02 03:27:54;;;;;;;18.83;5.75;;;12.30;99.90;;;;;;5041144;28;20219;-84
2023/06/02 03:30:23;;;;;;;17.65;6.60;;;12.40;99.90;;;;;;5047865;28;20223;-84
2023/06/02 03:32:52;;;;;;;13.98;5.00;;;12.30;99.90;;;;;;5032870;28;20216;-85
2023/06/02 03:35:19;;;;;;;15.73;5.05;;;12.40;99.90;;;;;;5041880;28;20204;-84
2023/06/02 03:37:47;;;;;;;15.43;5.60;;;12.40;99.90;;;;;;5047834;28;20227;-85
2023/06/02 03:40:14;;;;;;;24.60;8.35;;;12.40;99.90;;;;;;5030545;28;20266;-85
2023/06/02 03:42:41;;;;;;;17.45;5.25;;;12.40;99.90;;;;;;5041618;28;20212;-86
2023/06/02 03:45:09;;;;;;;17.83;5.18;;;12.40;99.90;;;;;;5046642;28;20645;-84
2023/06/02 03:47:36;;;;;;;24.75;7.35;;;12.40;99.90;;;;;;5048155;28;20210;-85
2023/06/02 03:50:03;;;;;;;23.95;6.55;;;12.60;99.90;;;;;;5048264;28;20215;-85
2023/06/02 03:52:30;;;;;;;16.27;6.90;;;12.50;99.90;;;;;;5048773;28;20213;-84
2023/06/02 03:55:00;;;;;;;12.13;5.40;;;12.50;99.90;;;;;;5049042;28;20214;-83
2023/06/02 03:57:27;;;;;;;13.35;5.70;;;12.50;99.90;;;;;;5053908;28;20208;-84
2023/06/02 03:59:54;;;;;;;25.52;6.97;;;12.60;99.90;;;;;;5048529;28;20615;-84
2023/06/02 04:02:21;;;;;;;13.35;4.75;;;12.60;99.90;;;;;;5047311;28;20220;-84
2023/06/02 04:04:48;;;;;;;17.25;5.47;;;12.70;99.90;;;;;;5046540;28;20239;-83
2023/06/02 04:07:15;;;;;;;20.13;6.57;;;12.70;99.90;;;;;;5045697;28;20207;-83
2023/06/02 04:09:42;;;;;;;15.15;5.05;;;12.80;99.90;;;;;;5043546;28;20246;-84
2023/06/02 04:12:11;;;;;;;25.40;5.93;;;12.90;99.90;;;;;;5048030;28;20256;-83
2023/06/02 04:14:38;;;;;;;18.30;5.85;;;12.90;99.90;;;;;;5044011;28;20237;-85
2023/06/02 04:17:07;;;;;;;13.95;5.90;;;13.00;99.90;;;;;;5046833;28;20207;-83
2023/06/02 04:19:34;;;;;;;19.23;6.22;;;13.10;99.90;;;;;;5043595;28;20271;-84
2023/06/02 04:22:01;;;;;;;18.30;6.40;;;13.20;99.90;;;;;;5048564;28;20297;-84
2023/06/02 04:24:29;;;;;;;24.63;6.55;;;13.30;99.90;;;;;;5047936;28;20199;-84
2023/06/02 04:26:56;;;;;;;18.50;7.05;;;13.40;99.90;;;;;;5050537;28;20203;-85
2023/06/02 04:29:25;;;;;;;21.08;5.93;;;13.40;99.90;;;;;;5046254;28;20255;-84
2023/06/02 04:31:52;;;;;;;18.98;6.43;;;13.50;99.90;;;;;;5046545;28;20242;-85
2023/06/02 04:34:19;;;;;;;17.25;5.22;;;13.60;99.90;;;;;;5045403;28;20282;-85
2023/06/02 04:36:47;;;;;;;18.17;6.00;;;13.60;99.90;;;;;;5048120;28;20280;-83
2023/06/02 04:39:14;;;;;;;21.45;7.10;;;13.80;99.90;;;;;;5050355;28;20181;-83
2023/06/02 04:41:42;;;;;;;15.13;6.10;;;13.80;99.90;;;;;;5056594;28;20220;-84
2023/06/02 04:44:09;;;;;;;16.35;7.22;;;13.80;99.90;;;;;;5049240;28;20235;-84
2023/06/02 04:46:38;;;;;;;23.42;7.70;;;13.80;99.90;;;;;;5043880;28;20223;-82
2023/06/02 04:49:08;;;;;;;21.02;6.07;;;13.90;99.90;;;;;;5047101;28;20662;-84
2023/06/02 04:51:37;;;;;;;21.52;6.55;;;13.90;99.90;;;;;;5048889;28;20797;-85
2023/06/02 04:54:06;;;;;;;28.80;6.30;;;14.00;99.90;;;;;;5040534;28;20299;-84
2023/06/02 04:56:34;;;;;;;23.48;5.68;;;14.20;99.90;;;;;;5054511;28;20196;-84
2023/06/02 04:59:02;;;;;;;21.92;6.85;;;14.40;99.90;;;;;;5038376;28;20204;-83
2023/06/02 05:01:40;;;;;;;16.02;5.47;;;14.60;99.90;;;;;;5053730;28;20599;-86
2023/06/02 05:04:08;;;;;;;26.65;8.43;;;14.70;99.90;;;;;;5052746;28;20196;-84
2023/06/02 05:06:36;;;;;;;25.60;8.18;;;14.80;99.90;;;;;;5051257;28;20205;-84
2023/06/02 05:09:03;;;;;;;24.08;5.93;;;14.90;99.90;;;;;;5051250;28;20278;-81
2023/06/02 05:11:30;;;;;;;31.20;7.50;;;15.20;99.90;;;;;;5055515;28;20224;-81
2023/06/02 05:13:57;;;;;;;15.57;5.60;;;15.70;99.90;;;;;;5059400;28;20205;-82
2023/06/02 05:16:24;;;;;;;20.15;6.25;;;16.20;99.90;;;;;;5055016;28;20267;-83
2023/06/02 05:18:52;;;;;;;20.93;6.37;;;16.40;99.90;;;;;;5047990;28;20190;-81
2023/06/02 05:21:19;;;;;;;27.50;6.83;;;16.30;99.90;;;;;;5059716;28;20457;-82
2023/06/02 05:23:47;;;;;;;20.83;5.50;;;16.30;99.90;;;;;;5050616;28;20521;-80
2023/06/02 05:26:14;;;;;;;22.63;6.83;;;16.50;99.90;;;;;;5058689;28;20458;-81
2023/06/02 05:28:41;;;;;;;16.20;5.87;;;17.00;99.90;;;;;;5058246;28;20466;-81
2023/06/02 05:31:09;;;;;;;21.37;5.17;;;17.70;99.90;;;;;;5058946;28;20489;-81
2023/06/02 05:33:36;;;;;;;20.00;5.40;;;18.50;99.90;;;;;;5055502;28;20478;-81
2023/06/02 05:36:04;;;;;;;21.60;6.30;;;18.70;99.90;;;;;;5049991;28;20512;-82
2023/06/02 05:38:31;;;;;;;18.00;5.83;;;18.30;99.90;;;;;;5039686;28;20457;-82
2023/06/02 05:40:58;;;;;;;16.33;5.77;;;17.90;99.90;;;;;;5048100;28;20469;-83
2023/06/02 05:43:25;;;;;;;21.57;6.77;;;17.70;99.90;;;;;;5047361;28;20493;-83
2023/06/02 05:45:52;;;;;;;17.80;6.20;;;17.90;99.90;;;;;;5053688;28;20889;-84
2023/06/02 05:48:19;;;;;;;19.20;6.30;;;18.70;99.90;;;;;;5048723;28;20435;-82
2023/06/02 05:50:45;;;;;;;17.63;6.30;;;19.20;99.90;;;;;;5059705;28;20538;-83
2023/06/02 05:53:14;;;;;;;16.10;5.60;;;19.70;99.90;;;;;;5054153;28;20470;-81
2023/06/02 05:55:41;;;;;;;16.00;6.00;;;20.70;99.80;;;;;;5049048;28;20450;-81
2023/06/02 05:58:08;;;;;;;18.07;6.30;;;21.20;97.60;;;;;;5048617;28;20436;-83
2023/06/02 06:00:34;;;;;;;25.20;8.20;;;21.80;95.60;;;;;;5046241;28;20494;-81
2023/06/02 06:03:01;;;;;;;16.70;5.67;;;22.10;94.50;;;;;;5048427;28;20439;-81
2023/06/02 06:05:28;;;;;;;28.27;8.93;;;22.40;93.50;;;;;;5047751;28;20449;-82
2023/06/02 06:07:55;;;;;;;18.03;6.37;;;22.50;93.50;;;;;;5048586;28;20501;-82
2023/06/02 06:10:23;;;;;;;23.03;6.93;;;23.20;92.90;;;;;;5050200;28;20486;-83
2023/06/02 06:12:50;;;;;;;17.13;6.80;;;24.00;91.50;;;;;;5051538;28;21020;-83
2023/06/02 06:15:18;;;;;;;18.27;5.93;;;25.00;90.30;;;;;;5049990;28;20458;-84
2023/06/02 06:17:50;;;;;;;25.07;5.90;;;25.80;87.10;;;;;;5055535;28;20535;-83
2023/06/02 06:20:16;;;;;;;21.50;5.20;;;26.40;84.20;;;;;;5054161;28;20473;-82
2023/06/02 06:22:44;;;;;;;14.03;5.43;;;26.70;82.80;;;;;;5045863;28;20453;-83
2023/06/02 06:25:11;;;;;;;12.50;4.50;;;27.00;82.10;;;;;;5050522;28;20454;-84
2023/06/02 06:27:40;;;;;;;13.53;5.20;;;27.70;79.00;;;;;;5049747;28;20915;-83
2023/06/02 06:30:08;;;;;;;16.63;5.93;;;27.90;78.10;;;;;;5041459;28;20506;-81
2023/06/02 06:32:35;;;;;;;14.63;5.43;;;28.20;77.20;;;;;;5059195;28;20446;-83
2023/06/02 06:35:02;;;;;;;18.33;5.67;;;28.80;76.50;;;;;;5049611;28;20439;-83
2023/06/02 06:37:54;;;;;;;13.03;4.83;;;28.60;74.70;;;;;;5052120;28;20474;-83
2023/06/02 06:40:22;;;;;;;16.20;6.03;;;28.50;74.90;;;;;;5052975;28;20451;-82
2023/06/02 06:42:51;;;;;;;19.30;5.33;;;28.50;74.90;;;;;;5054145;28;20493;-80
2023/06/02 06:45:18;;;;;;;16.00;6.53;;;28.40;74.30;;;;;;5055106;28;21393;-81
2023/06/02 06:47:45;;;;;;;18.37;5.40;;;28.10;74.90;;;;;;5052156;28;20447;-83
2023/06/02 06:50:14;;;;;;;16.87;5.20;;;27.60;75.80;;;;;;5048987;28;21090;-84
2023/06/02 06:52:41;;;;;;;15.30;5.70;;;26.80;77.00;;;;;;5049319;28;20541;-82
2023/06/02 06:55:09;;;;;;;13.37;5.10;;;26.60;77.90;;;;;;5049214;28;20482;-82
2023/06/02 06:57:35;;;;;;;16.40;5.30;;;26.40;78.00;;;;;;5051096;28;20478;-82
2023/06/02 07:00:05;;;;;;;15.40;6.03;;;26.50;78.90;;;;;;5050511;28;20427;-83
2023/06/02 07:02:32;;;;;;;16.30;5.17;;;26.50;78.30;;;;;;5047528;28;20507;-82
2023/06/02 07:04:59;;;;;;;14.20;4.67;;;26.00;79.80;;;;;;5048734;28;20447;-79
2023/06/02 07:07:26;;;;;;;13.63;4.40;;;25.30;80.30;;;;;;5054237;28;20507;-81
2023/06/02 07:09:54;;;;;;;13.27;4.00;;;25.00;81.10;;;;;;5054683;28;20506;-80
2023/06/02 07:12:21;;;;;;;17.93;4.57;;;24.70;82.60;;;;;;5050279;28;20525;-82
2023/06/02 07:14:50;;;;;;;16.00;3.87;;;24.20;83.40;;;;;;5056063;28;20451;-81
2023/06/02 07:17:20;;;;;;;9.53;4.10;;;24.30;84.60;;;;;;5051362;28;20443;-81
2023/06/02 07:19:47;;;;;;;11.40;4.20;;;24.70;84.00;;;;;;5067822;28;20460;-82
2023/06/02 07:22:14;;;;;;;11.63;4.80;;;25.60;82.60;;;;;;5055313;28;20485;-83
2023/06/02 07:24:43;;;;;;;11.80;4.23;;;26.50;80.50;;;;;;5056676;28;20459;-81
2023/06/02 07:27:10;;;;;;;13.97;3.57;;;27.60;77.80;;;;;;5060410;28;20449;-82
2023/06/02 07:29:37;;;;;;;10.87;4.20;;;27.60;76.20;;;;;;5052679;28;20490;-84
2023/06/02 07:32:04;;;;;;;17.07;5.13;;;27.30;75.40;;;;;;5055481;28;20463;-82
2023/06/02 07:34:32;;;;;;;13.10;4.30;;;26.70;76.40;;;;;;5049217;28;20470;-82
2023/06/02 07:37:00;;;;;;;12.77;5.10;;;26.70;77.70;;;;;;5058128;28;20442;-82
2023/06/02 07:39:28;;;;;;;11.27;3.33;;;27.10;76.70;;;;;;5057055;28;20439;-82
2023/06/02 07:41:57;;;;;;;8.10;2.93;;;27.40;75.90;;;;;;5055083;28;20522;-83
2023/06/02 07:44:23;;;;;;;6.33;2.50;;;27.90;73.40;;;;;;5039271;28;20464;-82
2023/06/02 07:46:50;;;;;;;14.60;3.70;;;28.90;71.90;;;;;;5051274;28;20536;-81
2023/06/02 07:49:17;;;;;;;7.93;2.83;;;29.60;70.10;;;;;;5049776;28;20538;-83
2023/06/02 07:51:45;;;;;;;10.10;3.40;;;30.20;68.70;;;;;;5051843;28;20519;-84
2023/06/02 07:54:13;;;;;;;4.60;2.37;;;30.20;68.30;;;;;;5042059;28;20448;-82
2023/06/02 07:56:40;;;;;;;8.13;6.30;;;30.60;65.70;;;;;;5047571;28;20513;-83
2023/06/02 07:59:09;;;;;;;11.50;3.40;;;30.60;65.10;;;;;;5045793;28;20470;-82
2023/06/02 08:01:36;;;;;;;8.83;3.13;;;30.50;65.60;;;;;;5046959;28;20479;-83
2023/06/02 08:04:03;;;;;;;6.70;3.27;;;30.30;64.90;;;;;;5045613;28;20463;-83
2023/06/02 08:06:30;;;;;;;7.40;3.20;;;30.20;65.60;;;;;;5047648;28;20486;-84
2023/06/02 08:08:58;;;;;;;6.50;2.83;;;30.40;64.60;;;;;;5048556;28;20833;-83
2023/06/02 08:11:26;;;;;;;7.77;3.27;;;30.50;62.70;;;;;;5045159;28;20577;-82
2023/06/02 08:13:53;;;;;;;5.30;2.73;;;31.00;61.40;;;;;;5047527;28;20459;-82
2023/06/02 08:16:21;;;;;;;6.77;2.43;;;31.70;59.30;;;;;;5046892;28;20783;-83
2023/06/02 08:18:48;;;;;;;9.00;3.07;;;31.70;59.60;;;;;;5043583;28;20563;-83
2023/06/02 08:21:15;;;;;;;5.00;2.47;;;31.80;59.00;;;;;;5045331;28;20482;-83
2023/06/02 08:23:42;;;;;;;6.87;2.50;;;31.90;59.20;;;;;;5046252;28;20451;-82
2023/06/02 08:26:10;;;;;;;5.30;2.90;;;32.10;59.00;;;;;;5043527;28;20512;-82
2023/06/02 08:28:38;;;;;;;8.30;3.30;;;31.80;58.80;;;;;;5042077;28;20446;-84
2023/06/02 08:31:05;;;;;;;5.83;2.77;;;31.80;58.80;;;;;;5045896;28;20490;-83
2023/06/02 08:33:35;;;;;;;8.63;3.03;;;32.00;58.40;;;;;;5045440;28;20458;-83
2023/06/02 08:36:02;;;;;;;11.17;2.43;;;32.20;57.50;;;;;;5042406;28;20482;-84
2023/06/02 08:38:30;;;;;;;8.53;3.70;;;31.40;57.70;;;;;;5033659;28;20439;-83
2023/06/02 08:40:58;;;;;;;8.33;3.07;;;30.90;58.40;;;;;;5056333;28;20459;-83
2023/06/02 08:43:26;;;;;;;5.43;2.47;;;29.90;59.80;;;;;;5048081;28;20445;-83
2023/06/02 08:46:00;;;;;;;10.07;2.63;;;30.00;60.40;;;;;;5046418;28;20867;-83
2023/06/02 08:48:28;;;;;;;11.73;2.70;;;29.90;61.00;;;;;;5045436;28;20462;-84
2023/06/02 08:50:58;;;;;;;5.80;3.20;;;30.20;61.70;;;;;;5047485;28;20482;-83
2023/06/02 08:53:25;;;;;;;7.27;2.60;;;29.70;62.50;;;;;;5048313;28;20439;-83
2023/06/02 08:55:52;;;;;;;8.10;3.10;;;29.70;63.40;;;;;;5047271;28;20454;-84
2023/06/02 08:58:20;;;;;;;10.50;3.20;;;29.40;63.10;;;;;;5047848;28;20467;-84
2023/06/02 09:00:49;;;;;;;5.77;2.93;;;28.50;64.90;;;;;;5045130;28;20462;-82
2023/06/02 09:03:16;;;;;;;13.63;3.90;;;27.40;66.60;;;;;;5048230;28;20478;-82
2023/06/02 09:05:43;;;;;;;9.40;3.33;;;26.80;68.90;;;;;;5045877;28;20586;-82
2023/06/02 09:08:12;;;;;;;10.13;3.20;;;27.00;70.50;;;;;;5033643;28;20486;-83
2023/06/02 09:10:41;;;;;;;7.83;3.37;;;27.80;69.60;;;;;;5045693;28;21079;-83
2023/06/02 09:13:09;;;;;;;4.77;2.43;;;29.00;67.00;;;;;;5065494;28;20438;-82
2023/06/02 09:15:37;;;;;;;5.27;2.60;;;29.40;62.60;;;;;;5056888;28;20443;-83
2023/06/02 09:18:15;;;;;;;6.97;2.50;;;28.60;62.40;;;;;;5055380;28;20486;-81
2023/06/02 09:20:47;;;;;;;5.77;2.93;;;27.50;63.90;;;;;;5054441;28;20470;-82
2023/06/02 09:23:14;;;;;;;9.07;2.90;;;26.80;65.30;;;;;;5042686;28;20575;-81
2023/06/02 09:25:43;;;;;;;9.63;3.00;;;27.10;66.20;;;;;;5054414;28;20437;-83
2023/06/02 09:28:10;;;;;;;6.27;3.37;;;28.00;65.20;;;;;;5060988;28;20419;-83
2023/06/02 09:30:37;;;;;;;9.80;2.50;;;28.00;65.30;;;;;;5056395;28;20485;-83
2023/06/02 09:33:08;;;;;;;5.00;2.63;;;28.30;65.60;;;;;;5055724;28;20447;-80
2023/06/02 09:35:40;;;;;;;5.67;2.80;;;28.80;65.30;;;;;;5056370;28;20431;-83
2023/06/02 09:38:10;;;;;;;3.40;2.50;;;28.90;63.60;;;;;;5056167;28;20438;-81
2023/06/02 09:40:37;;;;;;;5.33;3.17;;;28.70;64.80;;;;;;5056186;28;20477;-82
2023/06/02 09:43:05;;;;;;;6.23;2.63;;;29.10;65.20;;;;;;5052063;28;20443;-83
2023/06/02 09:45:32;;;;;;;7.77;3.03;;;29.40;63.80;;;;;;5057892;28;20469;-83
2023/06/02 09:48:00;;;;;;;5.33;3.30;;;29.40;64.20;;;;;;5057272;28;20430;-82
2023/06/02 09:50:37;;;;;;;5.60;3.43;;;28.40;64.20;;;;;;5048096;28;20503;-83
2023/06/02 09:53:06;;;;;;;5.40;3.10;;;27.60;65.90;;;;;;5061604;28;20438;-83
2023/06/02 09:55:35;;;;;;;6.90;3.20;;;26.90;67.80;;;;;;5052238;28;20455;-82
2023/06/02 09:58:03;;;;;;;7.27;3.43;;;26.00;69.00;;;;;;5051762;28;20851;-82
2023/06/02 10:00:30;;;;;;;6.47;3.43;;;25.10;71.10;;;;;;5056623;28;20467;-83
2023/06/02 10:02:58;;;;;;;8.43;2.90;;;24.60;74.20;;;;;;5053320;28;20546;-82
2023/06/02 10:05:25;;;;;;;8.67;3.10;;;25.30;74.90;;;;;;5058831;28;20432;-83
2023/06/02 10:08:08;;;;;;;5.53;4.30;;;26.40;73.10;;;;;;5051406;28;20423;-82
2023/06/02 10:10:59;;;;;;;6.37;3.57;;;26.40;71.70;;;;;;5051105;28;20482;-83
2023/06/02 10:13:51;;;;;;;7.90;3.70;;;26.10;72.10;;;;;;5042084;28;20497;-83
2023/06/02 10:16:31;;;;;;;7.37;4.43;;;25.40;73.40;;;;;;5043829;28;20451;-82
2023/06/02 10:19:31;;;;;;;7.10;3.97;;;24.50;76.00;;;;;;5048535;28;20477;-82
2023/06/02 10:22:28;;;;;;;7.53;4.57;;;23.90;77.90;;;;;;5048293;28;20488;-82
2023/06/02 10:25:06;;;;;;;6.13;4.20;;;23.50;80.00;;;;;;5055905;28;20450;-83
2023/06/02 10:27:35;;;;;;;8.57;3.90;;;23.20;81.20;;;;;;5053393;28;20434;-83
2023/06/02 10:30:03;;;;;;;4.97;3.90;;;23.00;82.00;;;;;;5048862;28;20495;-82
2023/06/02 10:32:41;;;;;;;6.60;3.60;;;22.90;82.80;;;;;;5049143;28;20463;-83
2023/06/02 10:35:09;;;;;;;7.13;3.73;;;22.90;83.20;;;;;;5051428;28;20672;-82
2023/06/02 10:37:37;;;;;;;5.43;3.73;;;22.80;83.40;;;;;;5058743;28;20424;-82
2023/06/02 10:40:08;;;;;;;5.87;4.03;;;22.70;84.40;;;;;;5058192;28;20466;-82
2023/06/02 10:42:36;;;;;;;15.03;5.50;;;22.50;84.80;;;;;;5047744;28;20443;-82
2023/06/02 10:45:37;;;;;;;9.50;5.00;;;22.30;85.20;;;;;;5051895;28;20458;-82
2023/06/02 10:48:40;;;;;;;9.37;4.00;;;21.80;87.00;;;;;;5056594;28;20470;-83
2023/06/02 10:51:08;;;;;;;6.40;3.50;;;21.70;88.20;;;;;;5051544;28;20542;-83
2023/06/02 10:53:56;;;;;;;12.20;3.83;;;21.90;87.90;;;;;;5045834;28;20471;-82
2023/06/02 10:56:46;;;;;;;11.93;5.33;;;22.10;88.50;;;;;;5048512;28;20455;-82
2023/06/02 10:59:31;;;;;;;11.33;4.57;;;22.40;88.10;;;;;;5049754;28;20451;-81
2023/06/02 11:01:58;;;;;;;7.10;3.80;;;22.70;86.70;;;;;;5055599;28;20543;-81
2023/06/02 11:04:31;;;;;;;10.60;4.10;;;23.00;85.60;;;;;;5055203;28;20941;-81
2023/06/02 11:07:21;;;;;;;5.30;3.70;;;22.90;84.40;;;;;;5055113;28;20536;-82
2023/06/02 11:09:51;;;;;;;8.43;5.20;;;22.50;86.10;;;;;;5054984;28;20520;-83
2023/06/02 11:12:19;;;;;;;8.17;4.83;;;22.30;86.70;;;;;;5053661;28;20454;-83
2023/06/02 11:15:18;;;;;;;8.20;5.03;;;22.10;87.90;;;;;;5049632;28;20474;-81
2023/06/02 11:17:47;;;;;;;8.57;4.40;;;21.90;88.70;;;;;;5044689;28;20477;-81
2023/06/02 11:20:15;;;;;;;7.73;3.70;;;21.70;88.90;;;;;;5050082;28;20438;-81
2023/06/02 11:22:43;;;;;;;7.47;4.17;;;21.60;89.50;;;;;;5051936;28;20444;-83
2023/06/02 11:25:10;;;;;;;8.97;4.40;;;21.60;89.50;;;;;;5047934;28;20443;-83
2023/06/02 11:27:42;;;;;;;9.93;4.47;;;21.70;89.50;;;;;;5050133;28;20462;-83
2023/06/02 11:30:12;;;;;;;7.33;3.83;;;21.80;88.50;;;;;;5034202;28;20534;-83
2023/06/02 11:32:39;;;;;;;7.53;4.20;;;22.10;88.80;;;;;;5050019;28;20474;-82
2023/06/02 11:35:08;;;;;;;11.27;4.47;;;22.20;87.70;;;;;;5049332;28;20466;-82
2023/06/02 11:37:36;;;;;;;7.37;4.23;;;22.40;88.10;;;;;;5052589;28;20439;-82
2023/06/02 11:40:05;;;;;;;7.33;4.80;;;22.50;87.40;;;;;;5048537;28;20447;-82
2023/06/02 11:42:36;;;;;;;10.10;5.50;;;22.60;86.60;;;;;;5048453;28;20514;-83
2023/06/02 11:45:06;;;;;;;8.10;3.50;;;22.70;86.90;;;;;;5047973;28;20446;-82
2023/06/02 11:47:33;;;;;;;6.50;4.30;;;23.00;87.10;;;;;;5048917;28;20453;-83
2023/06/02 11:50:00;;;;;;;6.77;3.83;;;23.20;86.00;;;;;;5057072;28;20760;-83
2023/06/02 11:52:27;;;;;;;11.50;4.80;;;23.50;85.20;;;;;;5056431;28;20470;-82
2023/06/02 11:54:56;;;;;;;8.50;4.30;;;23.80;84.50;;;;;;5056804;28;20459;-83
2023/06/02 11:57:29;;;;;;;9.03;4.90;;;23.50;84.20;;;;;;5055192;28;20478;-83
2023/06/02 12:00:12;;;;;;;7.93;4.00;;;23.30;83.90;;;;;;5038321;28;20441;-83
2023/06/02 12:02:40;;;;;;;10.20;3.87;;;22.70;84.80;;;;;;5047263;28;20435;-82
2023/06/02 12:05:11;;;;;;;7.57;3.90;;;22.10;85.20;;;;;;5047360;28;20459;-84
2023/06/02 12:07:38;;;;;;;8.23;3.13;;;21.80;86.10;;;;;;5041276;28;20469;-86
2023/06/02 12:10:07;;;;;;;7.60;3.70;;;21.60;87.00;;;;;;5048130;28;20534;-87
2023/06/02 12:12:34;;;;;;;7.13;3.70;;;21.40;87.50;;;;;;5053363;28;20458;-86
2023/06/02 12:15:16;;;;;;;6.97;3.60;;;21.20;88.40;;;;;;5049752;28;20439;-86
2023/06/02 12:17:45;;;;;;;8.20;3.40;;;21.10;88.70;;;;;;5048080;28;20451;-88
2023/06/02 12:20:12;;;;;;;5.87;4.43;;;21.10;89.40;;;;;;5047837;28;20511;-85
2023/06/02 12:22:53;;;;;;;9.97;3.90;;;21.30;90.00;;;;;;5050146;28;20443;-85
2023/06/02 12:25:21;;;;;;;7.70;3.50;;;21.60;89.70;;;;;;5049515;28;20471;-85
2023/06/02 12:27:50;;;;;;;6.07;3.50;;;21.70;89.60;;;;;;5046156;28;20447;-85
2023/06/02 12:30:18;;;;;;;7.10;4.40;;;21.80;88.80;;;;;;5047703;28;20471;-87
2023/06/02 12:32:45;;;;;;;10.73;3.60;;;21.90;88.80;;;;;;5048327;28;20457;-87
2023/06/02 12:35:13;;;;;;;5.27;3.50;;;21.70;88.90;;;;;;5061646;28;20439;-84
2023/06/02 12:37:42;;;;;;;4.80;3.70;;;21.60;88.80;;;;;;5051891;28;20447;-86
2023/06/02 12:40:11;;;;;;;6.00;3.30;;;21.30;89.70;;;;;;5045739;28;20448;-85
2023/06/02 12:42:38;;;;;;;4.83;3.87;;;21.00;90.10;;;;;;5049175;28;20476;-86
2023/06/02 12:45:08;;;;;;;7.53;3.53;;;21.00;90.60;;;;;;5046732;28;20521;-86
2023/06/02 12:47:37;;;;;;;4.83;3.40;;;21.00;90.40;;;;;;5044189;28;20443;-83
2023/06/02 12:50:07;;;;;;;20.47;5.37;;;21.00;90.30;;;;;;5047511;28;20466;-86
2023/06/02 12:52:34;;;;;;;8.73;3.53;;;20.80;90.00;;;;;;5046363;28;20483;-86
2023/06/02 12:55:01;;;;;;;6.70;3.20;;;20.60;90.10;;;;;;5042273;28;20459;-86
2023/06/02 12:57:29;;;;;;;6.07;3.00;;;20.50;90.20;;;;;;5046803;28;20452;-87
2023/06/02 13:03:42;;;;;;;5.47;2.90;;;20.30;90.00;;;;;;4910419;26;20568;-78
2023/06/02 13:09:34;;;;;;;11.70;3.77;;;20.80;90.30;;;;;;4961663;28;20870;-78